createdAt,value
2024-05-09T00:00:08.326Z,95153.00
2024-05-09T00:01:06.489Z,95150.00
2024-05-09T00:02:06.467Z,95149.00
2024-05-09T00:03:06.501Z,95151.00
2024-05-09T00:04:06.526Z,95152.00
2024-05-09T00:05:06.576Z,95150.00
2024-05-09T00:06:06.502Z,95151.00
2024-05-09T00:07:06.506Z,95150.00
2024-05-09T00:08:06.571Z,95148.00
2024-05-09T00:09:06.528Z,95149.00
2024-05-09T00:10:11.676Z,95149.00
2024-05-09T00:11:07.572Z,95151.00
2024-05-09T00:12:06.656Z,95149.00
2024-05-09T00:13:06.895Z,95151.00
2024-05-09T00:14:06.555Z,95149.00
2024-05-09T00:15:06.474Z,95151.00
2024-05-09T00:16:06.473Z,95148.00
2024-05-09T00:17:06.565Z,95149.00
2024-05-09T00:18:09.359Z,95148.00
2024-05-09T00:19:07.123Z,95148.00
2024-05-09T00:20:14.292Z,95147.00
2024-05-09T00:21:07.658Z,95147.00
2024-05-09T00:22:06.534Z,95147.00
2024-05-09T00:23:06.589Z,95146.00
2024-05-09T00:24:06.515Z,95144.00
2024-05-09T00:25:06.524Z,95145.00
2024-05-09T00:26:06.542Z,95144.00
2024-05-09T00:27:06.574Z,95144.00
2024-05-09T00:28:06.511Z,95145.00
2024-05-09T00:29:06.556Z,95145.00
2024-05-09T00:30:07.420Z,95147.00
2024-05-09T00:31:06.607Z,95145.00
2024-05-09T00:32:06.743Z,95144.00
2024-05-09T00:33:08.266Z,95146.00
2024-05-09T00:34:06.826Z,95143.00
2024-05-09T00:35:06.832Z,95143.00
2024-05-09T00:36:06.718Z,95144.00
2024-05-09T00:37:06.799Z,95142.00
2024-05-09T00:38:06.857Z,95142.00
2024-05-09T00:39:06.735Z,95139.00
2024-05-09T00:40:09.574Z,95136.00
2024-05-09T00:41:07.809Z,95136.00
2024-05-09T00:42:06.788Z,95134.00
2024-05-09T00:43:06.864Z,95133.00
2024-05-09T00:44:06.758Z,95135.00
2024-05-09T00:45:06.761Z,95134.00
2024-05-09T00:46:06.762Z,95134.00
2024-05-09T00:47:06.900Z,95134.00
2024-05-09T00:48:08.387Z,95133.00
2024-05-09T00:49:06.846Z,95131.00
2024-05-09T00:50:10.150Z,95132.00
2024-05-09T00:51:07.894Z,95130.00
2024-05-09T00:52:06.787Z,95127.00
2024-05-09T00:53:07.117Z,95128.00
2024-05-09T00:54:06.744Z,95125.00
2024-05-09T00:55:06.748Z,95125.00
2024-05-09T00:56:06.761Z,95122.00
2024-05-09T00:57:06.823Z,95121.00
2024-05-09T00:58:06.761Z,95120.00
2024-05-09T00:59:06.931Z,95122.00
2024-05-09T01:00:15.008Z,95122.00
2024-05-09T01:01:07.892Z,95120.00
2024-05-09T01:02:07.006Z,95120.00
2024-05-09T01:03:07.345Z,95123.00
2024-05-09T01:04:06.972Z,95119.00
2024-05-09T01:05:06.894Z,95121.00
2024-05-09T01:06:06.888Z,95122.00
2024-05-09T01:07:06.928Z,95120.00
2024-05-09T01:08:06.957Z,95118.00
2024-05-09T01:09:06.842Z,95116.00
2024-05-09T01:10:13.829Z,95115.00
2024-05-09T01:11:08.024Z,95115.00
2024-05-09T01:12:07.068Z,95114.00
2024-05-09T01:13:07.386Z,95112.00
2024-05-09T01:14:06.912Z,95111.00
2024-05-09T01:15:06.933Z,95110.00
2024-05-09T01:16:06.915Z,95112.00
2024-05-09T01:17:07.057Z,95111.00
2024-05-09T01:18:07.234Z,95110.00
2024-05-09T01:19:07.025Z,95111.00
2024-05-09T01:20:10.804Z,95112.00
2024-05-09T01:21:08.096Z,95112.00
2024-05-09T01:22:07.020Z,95110.00
2024-05-09T01:23:07.174Z,95110.00
2024-05-09T01:24:07.019Z,95110.00
2024-05-09T01:25:07.022Z,95108.00
2024-05-09T01:26:07.041Z,95111.00
2024-05-09T01:27:07.024Z,95111.00
2024-05-09T01:28:07.047Z,95110.00
2024-05-09T01:29:07.087Z,95109.00
2024-05-09T01:30:09.596Z,95112.00
2024-05-09T01:31:08.143Z,95111.00
2024-05-09T01:32:07.224Z,95110.00
2024-05-09T01:33:09.219Z,95111.00
2024-05-09T01:34:07.220Z,95110.00
2024-05-09T01:35:07.201Z,95111.00
2024-05-09T01:36:07.149Z,95111.00
2024-05-09T01:37:07.176Z,95111.00
2024-05-09T01:38:07.201Z,95113.00
2024-05-09T01:39:07.152Z,95113.00
2024-05-09T01:40:12.034Z,95112.00
2024-05-09T01:41:08.181Z,95113.00
2024-05-09T01:42:07.168Z,95113.00
2024-05-09T01:43:07.352Z,95113.00
2024-05-09T01:44:07.190Z,95113.00
2024-05-09T01:45:07.174Z,95114.00
2024-05-09T01:46:07.184Z,95116.00
2024-05-09T01:47:07.297Z,95112.00
2024-05-09T01:48:07.396Z,95114.00
2024-05-09T01:49:07.383Z,95115.00
2024-05-09T01:50:10.692Z,95114.00
2024-05-09T01:51:07.361Z,95114.00
2024-05-09T01:52:07.224Z,95114.00
2024-05-09T01:53:07.334Z,95114.00
2024-05-09T01:54:07.207Z,95115.00
2024-05-09T01:55:07.245Z,95114.00
2024-05-09T01:56:07.294Z,95114.00
2024-05-09T01:57:07.238Z,95113.00
2024-05-09T01:58:07.413Z,95112.00
2024-05-09T01:59:07.251Z,95112.00
2024-05-09T02:00:07.988Z,95111.00
2024-05-09T02:01:07.282Z,95111.00
2024-05-09T02:02:07.304Z,95111.00
2024-05-09T02:03:07.574Z,95111.00
2024-05-09T02:04:08.423Z,95111.00
2024-05-09T02:05:09.160Z,95111.00
2024-05-09T02:06:07.358Z,95109.00
2024-05-09T02:07:07.252Z,95108.00
2024-05-09T02:08:07.742Z,95108.00
2024-05-09T02:09:07.235Z,95108.00
2024-05-09T02:10:13.765Z,95108.00
2024-05-09T02:11:08.279Z,95109.00
2024-05-09T02:12:07.424Z,95109.00
2024-05-09T02:13:07.274Z,95106.00
2024-05-09T02:14:07.300Z,95106.00
2024-05-09T02:15:07.261Z,95106.00
2024-05-09T02:16:07.251Z,95105.00
2024-05-09T02:17:07.371Z,95104.00
2024-05-09T02:18:07.598Z,95104.00
2024-05-09T02:19:07.360Z,95101.00
2024-05-09T02:20:10.766Z,95101.00
2024-05-09T02:21:08.457Z,95101.00
2024-05-09T02:22:07.307Z,95101.00
2024-05-09T02:23:07.515Z,95100.00
2024-05-09T02:24:07.308Z,95100.00
2024-05-09T02:25:07.307Z,95098.00
2024-05-09T02:26:07.348Z,95099.00
2024-05-09T02:27:07.323Z,95100.00
2024-05-09T02:28:07.316Z,95099.00
2024-05-09T02:29:07.385Z,95100.00
2024-05-09T02:30:18.361Z,95100.00
2024-05-09T02:31:08.364Z,95102.00
2024-05-09T02:32:07.428Z,95100.00
2024-05-09T02:33:08.078Z,95100.00
2024-05-09T02:34:07.429Z,95099.00
2024-05-09T02:35:07.401Z,95098.00
2024-05-09T02:36:07.368Z,95097.00
2024-05-09T02:37:07.662Z,95098.00
2024-05-09T02:38:07.414Z,95098.00
2024-05-09T02:39:07.377Z,95098.00
2024-05-09T02:40:11.572Z,95097.00
2024-05-09T02:41:08.481Z,95097.00
2024-05-09T02:42:07.463Z,95098.00
2024-05-09T02:43:07.984Z,95096.00
2024-05-09T02:44:07.469Z,95097.00
2024-05-09T02:45:07.450Z,95099.00
2024-05-09T02:46:07.454Z,95097.00
2024-05-09T02:47:07.648Z,95099.00
2024-05-09T02:48:07.730Z,95099.00
2024-05-09T02:49:07.663Z,95101.00
2024-05-09T02:50:08.304Z,95101.00
2024-05-09T02:51:08.711Z,95099.00
2024-05-09T02:52:07.622Z,95102.00
2024-05-09T02:53:08.143Z,95100.00
2024-05-09T02:54:07.762Z,95103.00
2024-05-09T02:55:07.781Z,95102.00
2024-05-09T02:56:07.944Z,95101.00
2024-05-09T02:57:07.915Z,95103.00
2024-05-09T02:58:07.994Z,95101.00
2024-05-09T02:59:08.074Z,95102.00
2024-05-09T03:00:15.149Z,95101.00
2024-05-09T03:01:09.122Z,95100.00
2024-05-09T03:02:08.153Z,95099.00
2024-05-09T03:03:09.449Z,95097.00
2024-05-09T03:04:08.296Z,95098.00
2024-05-09T03:05:08.129Z,95096.00
2024-05-09T03:06:08.106Z,95098.00
2024-05-09T03:07:08.665Z,95097.00
2024-05-09T03:08:08.361Z,95098.00
2024-05-09T03:09:08.110Z,95097.00
2024-05-09T03:10:14.970Z,95095.00
2024-05-09T03:11:09.244Z,95097.00
2024-05-09T03:12:08.267Z,95094.00
2024-05-09T03:13:08.272Z,95094.00
2024-05-09T03:14:10.867Z,95097.00
2024-05-09T03:15:08.180Z,95094.00
2024-05-09T03:16:08.112Z,95095.00
2024-05-09T03:17:08.199Z,95095.00
2024-05-09T03:18:08.269Z,95094.00
2024-05-09T03:19:08.191Z,95096.00
2024-05-09T03:20:17.022Z,95096.00
2024-05-09T03:21:09.232Z,95096.00
2024-05-09T03:22:08.130Z,95096.00
2024-05-09T03:23:09.308Z,95097.00
2024-05-09T03:24:08.120Z,95096.00
2024-05-09T03:25:08.121Z,95096.00
2024-05-09T03:26:08.163Z,95098.00
2024-05-09T03:27:08.160Z,95098.00
2024-05-09T03:28:08.126Z,95100.00
2024-05-09T03:29:08.193Z,95098.00
2024-05-09T03:30:09.950Z,95098.00
2024-05-09T03:31:08.284Z,95097.00
2024-05-09T03:32:08.488Z,95098.00
2024-05-09T03:33:08.533Z,95100.00
2024-05-09T03:34:08.543Z,95098.00
2024-05-09T03:35:08.592Z,95099.00
2024-05-09T03:36:11.091Z,95101.00
2024-05-09T03:37:08.653Z,95103.00
2024-05-09T03:38:08.778Z,95104.00
2024-05-09T03:39:08.625Z,95105.00
2024-05-09T03:40:14.497Z,95106.00
2024-05-09T03:41:09.740Z,95107.00
2024-05-09T03:42:08.637Z,95107.00
2024-05-09T03:43:08.648Z,95105.00
2024-05-09T03:44:08.660Z,95109.00
2024-05-09T03:45:08.664Z,95109.00
2024-05-09T03:46:08.635Z,95107.00
2024-05-09T03:47:08.762Z,95108.00
2024-05-09T03:48:09.017Z,95107.00
2024-05-09T03:49:08.879Z,95106.00
2024-05-09T03:50:17.952Z,95105.00
2024-05-09T03:51:09.930Z,95106.00
2024-05-09T03:52:08.814Z,95107.00
2024-05-09T03:53:08.776Z,95108.00
2024-05-09T03:54:08.769Z,95106.00
2024-05-09T03:55:08.758Z,95109.00
2024-05-09T03:56:08.785Z,95108.00
2024-05-09T03:57:08.848Z,95109.00
2024-05-09T03:58:08.814Z,95110.00
2024-05-09T03:59:08.885Z,95111.00
2024-05-09T04:00:17.745Z,95113.00
2024-05-09T04:01:09.945Z,95115.00
2024-05-09T04:02:09.028Z,95116.00
2024-05-09T04:03:11.334Z,95118.00
2024-05-09T04:04:09.074Z,95120.00
2024-05-09T04:05:08.929Z,95121.00
2024-05-09T04:06:08.907Z,95124.00
2024-05-09T04:07:08.928Z,95123.00
2024-05-09T04:08:09.071Z,95124.00
2024-05-09T04:09:08.897Z,95126.00
2024-05-09T04:10:13.876Z,95122.00
2024-05-09T04:11:10.023Z,95123.00
2024-05-09T04:12:09.743Z,95125.00
2024-05-09T04:13:08.997Z,95124.00
2024-05-09T04:14:09.983Z,95123.00
2024-05-09T04:15:11.224Z,95124.00
2024-05-09T04:16:08.958Z,95124.00
2024-05-09T04:17:08.981Z,95126.00
2024-05-09T04:18:09.077Z,95126.00
2024-05-09T04:19:09.072Z,95128.00
2024-05-09T04:20:12.426Z,95130.00
2024-05-09T04:21:10.077Z,95129.00
2024-05-09T04:22:08.928Z,95130.00
2024-05-09T04:23:09.618Z,95133.00
2024-05-09T04:24:08.930Z,95132.00
2024-05-09T04:25:08.956Z,95135.00
2024-05-09T04:26:08.963Z,95134.00
2024-05-09T04:27:16.166Z,95135.00
2024-05-09T04:28:16.134Z,95135.00
2024-05-09T04:29:16.182Z,95135.00
2024-05-09T04:30:25.408Z,95135.00
2024-05-09T04:31:28.386Z,95132.00
2024-05-09T04:32:28.446Z,95135.00
2024-05-09T04:33:28.396Z,95132.00
2024-05-09T04:34:28.348Z,95134.00
2024-05-09T04:35:28.502Z,95134.00
2024-05-09T04:36:28.282Z,95135.00
2024-05-09T04:37:28.242Z,95133.00
2024-05-09T04:38:28.277Z,95132.00
2024-05-09T04:39:28.250Z,95136.00
2024-05-09T04:40:33.543Z,95134.00
2024-05-09T04:41:29.317Z,95135.00
2024-05-09T04:42:28.242Z,95137.00
2024-05-09T04:43:28.244Z,95137.00
2024-05-09T04:44:28.385Z,95136.00
2024-05-09T04:45:28.272Z,95135.00
2024-05-09T04:46:28.248Z,95136.00
2024-05-09T04:47:28.391Z,95135.00
2024-05-09T04:48:28.573Z,95132.00
2024-05-09T04:49:28.402Z,95134.00
2024-05-09T04:50:35.845Z,95133.00
2024-05-09T04:51:29.379Z,95133.00
2024-05-09T04:52:28.382Z,95136.00
2024-05-09T04:53:28.408Z,95135.00
2024-05-09T04:54:35.787Z,95136.00
2024-05-09T04:55:29.388Z,95136.00
2024-05-09T04:56:28.493Z,95138.00
2024-05-09T04:57:28.387Z,95135.00
2024-05-09T04:58:28.395Z,95134.00
2024-05-09T04:59:28.490Z,95134.00
2024-05-09T05:00:35.249Z,95136.00
2024-05-09T05:01:29.455Z,95137.00
2024-05-09T05:02:28.561Z,95135.00
2024-05-09T05:03:28.477Z,95138.00
2024-05-09T05:04:28.485Z,95138.00
2024-05-09T05:05:28.467Z,95141.00
2024-05-09T05:06:28.421Z,95140.00
2024-05-09T05:07:28.424Z,95141.00
2024-05-09T05:08:28.503Z,95143.00
2024-05-09T05:09:28.431Z,95145.00
2024-05-09T05:10:34.020Z,95144.00
2024-05-09T05:11:29.549Z,95145.00
2024-05-09T05:12:28.640Z,95145.00
2024-05-09T05:13:28.468Z,95146.00
2024-05-09T05:14:28.571Z,95146.00
2024-05-09T05:15:28.486Z,95142.00
2024-05-09T05:16:28.484Z,95142.00
2024-05-09T05:17:28.690Z,95141.00
2024-05-09T05:18:28.883Z,95141.00
2024-05-09T05:19:28.701Z,95142.00
2024-05-09T05:20:33.523Z,95143.00
2024-05-09T05:21:29.603Z,95141.00
2024-05-09T05:22:28.652Z,95142.00
2024-05-09T05:23:30.476Z,95142.00
2024-05-09T05:24:28.561Z,95142.00
2024-05-09T05:25:28.577Z,95140.00
2024-05-09T05:26:28.593Z,95142.00
2024-05-09T05:27:28.563Z,95141.00
2024-05-09T05:28:29.344Z,95142.00
2024-05-09T05:29:28.713Z,95143.00
2024-05-09T05:30:32.972Z,95142.00
2024-05-09T05:31:29.721Z,95142.00
2024-05-09T05:32:29.475Z,95143.00
2024-05-09T05:33:29.012Z,95145.00
2024-05-09T05:34:28.691Z,95144.00
2024-05-09T05:35:28.772Z,95146.00
2024-05-09T05:36:28.665Z,95151.00
2024-05-09T05:37:28.618Z,95151.00
2024-05-09T05:38:28.899Z,95153.00
2024-05-09T05:39:28.680Z,95152.00
2024-05-09T05:40:35.888Z,95153.00
2024-05-09T05:41:29.693Z,95154.00
2024-05-09T05:42:28.627Z,95154.00
2024-05-09T05:43:28.633Z,95153.00
2024-05-09T05:44:28.716Z,95154.00
2024-05-09T05:45:28.648Z,95155.00
2024-05-09T05:46:28.684Z,95157.00
2024-05-09T05:47:28.725Z,95156.00
2024-05-09T05:48:28.721Z,95158.00
2024-05-09T05:49:28.717Z,95157.00
2024-05-09T05:50:35.451Z,95157.00
2024-05-09T05:51:29.738Z,95157.00
2024-05-09T05:52:28.647Z,95155.00
2024-05-09T05:53:28.675Z,95156.00
2024-05-09T05:54:28.673Z,95154.00
2024-05-09T05:55:28.641Z,95153.00
2024-05-09T05:56:28.680Z,95153.00
2024-05-09T05:57:28.653Z,95154.00
2024-05-09T05:58:28.651Z,95152.00
2024-05-09T05:59:28.685Z,95152.00
2024-05-09T06:00:34.081Z,95154.00
2024-05-09T06:01:29.701Z,95154.00
2024-05-09T06:02:28.840Z,95155.00
2024-05-09T06:03:28.726Z,95153.00
2024-05-09T06:04:28.697Z,95153.00
2024-05-09T06:05:28.749Z,95154.00
2024-05-09T06:06:28.661Z,95153.00
2024-05-09T06:07:28.685Z,95152.00
2024-05-09T06:08:30.539Z,95153.00
2024-05-09T06:09:28.673Z,95150.00
2024-05-09T06:10:35.194Z,95149.00
2024-05-09T06:11:29.804Z,95152.00
2024-05-09T06:12:28.793Z,95150.00
2024-05-09T06:13:28.685Z,95149.00
2024-05-09T06:14:28.904Z,95148.00
2024-05-09T06:15:28.749Z,95147.00
2024-05-09T06:16:28.741Z,95145.00
2024-05-09T06:17:29.459Z,95145.00
2024-05-09T06:18:28.806Z,95144.00
2024-05-09T06:19:28.833Z,95146.00
2024-05-09T06:20:35.267Z,95141.00
2024-05-09T06:21:29.798Z,95144.00
2024-05-09T06:22:28.698Z,95143.00
2024-05-09T06:23:28.786Z,95140.00
2024-05-09T06:24:28.701Z,95139.00
2024-05-09T06:25:28.712Z,95138.00
2024-05-09T06:26:28.741Z,95135.00
2024-05-09T06:27:28.754Z,95133.00
2024-05-09T06:28:28.717Z,95135.00
2024-05-09T06:29:28.853Z,95131.00
2024-05-09T06:30:37.004Z,95131.00
2024-05-09T06:31:29.719Z,95132.00
2024-05-09T06:32:28.874Z,95131.00
2024-05-09T06:33:29.050Z,95131.00
2024-05-09T06:34:28.878Z,95133.00
2024-05-09T06:35:29.465Z,95131.00
2024-05-09T06:36:28.734Z,95130.00
2024-05-09T06:37:28.717Z,95130.00
2024-05-09T06:38:28.752Z,95128.00
2024-05-09T06:39:28.732Z,95129.00
2024-05-09T06:40:36.635Z,95127.00
2024-05-09T06:41:29.933Z,95128.00
2024-05-09T06:42:28.731Z,95130.00
2024-05-09T06:43:28.728Z,95129.00
2024-05-09T06:44:28.818Z,95127.00
2024-05-09T06:45:28.733Z,95129.00
2024-05-09T06:46:28.726Z,95131.00
2024-05-09T06:47:29.061Z,95134.00
2024-05-09T06:48:28.882Z,95134.00
2024-05-09T06:49:28.788Z,95134.00
2024-05-09T06:50:35.720Z,95135.00
2024-05-09T06:51:29.878Z,95138.00
2024-05-09T06:52:28.954Z,95137.00
2024-05-09T06:53:28.931Z,95138.00
2024-05-09T06:54:28.902Z,95138.00
2024-05-09T06:55:28.949Z,95139.00
2024-05-09T06:56:30.026Z,95138.00
2024-05-09T06:57:28.962Z,95137.00
2024-05-09T06:58:28.990Z,95137.00
2024-05-09T06:59:29.288Z,95138.00
2024-05-09T07:00:35.813Z,95137.00
2024-05-09T07:01:30.120Z,95138.00
2024-05-09T07:02:29.114Z,95139.00
2024-05-09T07:03:29.198Z,95138.00
2024-05-09T07:04:29.157Z,95141.00
2024-05-09T07:05:29.136Z,95139.00
2024-05-09T07:06:29.050Z,95141.00
2024-05-09T07:07:29.030Z,95140.00
2024-05-09T07:08:29.087Z,95140.00
2024-05-09T07:09:29.045Z,95141.00
2024-05-09T07:10:34.447Z,95141.00
2024-05-09T07:11:30.310Z,95141.00
2024-05-09T07:12:29.195Z,95139.00
2024-05-09T07:13:29.032Z,95138.00
2024-05-09T07:14:29.278Z,95140.00
2024-05-09T07:15:29.128Z,95137.00
2024-05-09T07:16:30.036Z,95135.00
2024-05-09T07:17:29.322Z,95136.00
2024-05-09T07:18:29.306Z,95133.00
2024-05-09T07:19:29.299Z,95134.00
2024-05-09T07:20:34.451Z,95133.00
2024-05-09T07:21:30.886Z,95135.00
2024-05-09T07:22:29.058Z,95134.00
2024-05-09T07:23:29.109Z,95130.00
2024-05-09T07:24:29.047Z,95130.00
2024-05-09T07:25:29.139Z,95129.00
2024-05-09T07:26:32.946Z,95130.00
2024-05-09T07:27:29.057Z,95129.00
2024-05-09T07:28:29.064Z,95129.00
2024-05-09T07:29:29.116Z,95128.00
2024-05-09T07:30:33.367Z,95127.00
2024-05-09T07:31:30.067Z,95126.00
2024-05-09T07:32:29.166Z,95125.00
2024-05-09T07:33:29.243Z,95124.00
2024-05-09T07:34:29.103Z,95124.00
2024-05-09T07:35:29.314Z,95126.00
2024-05-09T07:36:29.081Z,95125.00
2024-05-09T07:37:29.069Z,95123.00
2024-05-09T07:38:29.144Z,95123.00
2024-05-09T07:39:29.072Z,95122.00
2024-05-09T07:40:35.568Z,95123.00
2024-05-09T07:41:30.226Z,95122.00
2024-05-09T07:42:29.081Z,95120.00
2024-05-09T07:43:29.089Z,95120.00
2024-05-09T07:44:29.202Z,95121.00
2024-05-09T07:45:45.391Z,95119.00
2024-05-09T07:47:36.969Z,95117.00
2024-05-09T07:48:57.206Z,95115.00
2024-05-09T07:50:01.204Z,95115.00
2024-05-09T07:53:08.509Z,95116.00
2024-05-09T07:53:32.610Z,95115.00
2024-05-09T07:53:40.355Z,95115.00
2024-05-09T07:54:30.319Z,95115.00
2024-05-09T07:55:29.390Z,95115.00
2024-05-09T07:56:30.362Z,95111.00
2024-05-09T07:57:29.171Z,95112.00
2024-05-09T07:58:29.171Z,95111.00
2024-05-09T07:59:29.133Z,95110.00
2024-05-09T08:00:31.713Z,95111.00
2024-05-09T08:01:29.286Z,95107.00
2024-05-09T08:02:29.248Z,95106.00
2024-05-09T08:03:29.292Z,95105.00
2024-05-09T08:04:29.308Z,95106.00
2024-05-09T08:05:29.346Z,95106.00
2024-05-09T08:06:29.196Z,95106.00
2024-05-09T08:07:29.939Z,95106.00
2024-05-09T08:08:29.173Z,95104.00
2024-05-09T08:09:29.222Z,95106.00
2024-05-09T08:10:29.485Z,95104.00
2024-05-09T08:11:29.195Z,95103.00
2024-05-09T08:12:29.220Z,95103.00
2024-05-09T08:13:29.160Z,95104.00
2024-05-09T08:14:29.192Z,95101.00
2024-05-09T08:15:29.490Z,95102.00
2024-05-09T08:16:29.285Z,95101.00
2024-05-09T08:17:29.279Z,95102.00
2024-05-09T08:18:29.399Z,95101.00
2024-05-09T08:19:29.223Z,95101.00
2024-05-09T08:20:33.645Z,95101.00
2024-05-09T08:21:30.306Z,95100.00
2024-05-09T08:22:29.176Z,95097.00
2024-05-09T08:23:29.186Z,95098.00
2024-05-09T08:24:29.271Z,95098.00
2024-05-09T08:25:29.183Z,95096.00
2024-05-09T08:26:29.178Z,95098.00
2024-05-09T08:27:29.243Z,95098.00
2024-05-09T08:28:29.303Z,95098.00
2024-05-09T08:29:29.991Z,95096.00
2024-05-09T08:30:34.136Z,95097.00
2024-05-09T08:31:30.508Z,95095.00
2024-05-09T08:32:29.389Z,95091.00
2024-05-09T08:33:29.486Z,95094.00
2024-05-09T08:34:29.499Z,95090.00
2024-05-09T08:35:29.349Z,95088.00
2024-05-09T08:36:29.404Z,95089.00
2024-05-09T08:37:32.886Z,95090.00
2024-05-09T08:38:30.377Z,95088.00
2024-05-09T08:39:29.396Z,95087.00
2024-05-09T08:40:34.580Z,95086.00
2024-05-09T08:41:30.356Z,95086.00
2024-05-09T08:42:29.470Z,95088.00
2024-05-09T08:43:29.525Z,95085.00
2024-05-09T08:44:29.360Z,95087.00
2024-05-09T08:45:29.415Z,95084.00
2024-05-09T08:46:29.540Z,95082.00
2024-05-09T08:47:29.439Z,95083.00
2024-05-09T08:48:29.771Z,95082.00
2024-05-09T08:49:29.682Z,95084.00
2024-05-09T08:50:37.695Z,95083.00
2024-05-09T08:51:30.615Z,95084.00
2024-05-09T08:52:29.497Z,95083.00
2024-05-09T08:53:29.521Z,95081.00
2024-05-09T08:54:29.563Z,95083.00
2024-05-09T08:55:30.441Z,95084.00
2024-05-09T08:56:29.515Z,95085.00
2024-05-09T08:57:29.555Z,95083.00
2024-05-09T08:58:32.004Z,95084.00
2024-05-09T08:59:29.609Z,95081.00
2024-05-09T09:00:36.303Z,95081.00
2024-05-09T09:01:30.811Z,95081.00
2024-05-09T09:02:29.835Z,95081.00
2024-05-09T09:03:30.021Z,95080.00
2024-05-09T09:04:29.720Z,95079.00
2024-05-09T09:05:29.860Z,95074.00
2024-05-09T09:06:29.689Z,95074.00
2024-05-09T09:07:29.771Z,95074.00
2024-05-09T09:08:29.746Z,95071.00
2024-05-09T09:09:29.733Z,95072.00
2024-05-09T09:10:32.304Z,95071.00
2024-05-09T09:11:29.679Z,95070.00
2024-05-09T09:12:29.739Z,95068.00
2024-05-09T09:13:29.660Z,95068.00
2024-05-09T09:14:29.668Z,95068.00
2024-05-09T09:15:29.687Z,95068.00
2024-05-09T09:16:29.701Z,95067.00
2024-05-09T09:17:29.784Z,95066.00
2024-05-09T09:18:29.978Z,95067.00
2024-05-09T09:19:29.734Z,95067.00
2024-05-09T09:20:36.027Z,95068.00
2024-05-09T09:21:32.027Z,95068.00
2024-05-09T09:22:29.889Z,95066.00
2024-05-09T09:23:30.462Z,95066.00
2024-05-09T09:24:29.874Z,95068.00
2024-05-09T09:25:29.826Z,95065.00
2024-05-09T09:26:29.844Z,95064.00
2024-05-09T09:27:29.870Z,95061.00
2024-05-09T09:28:30.162Z,95058.00
2024-05-09T09:29:30.474Z,95061.00
2024-05-09T09:30:36.594Z,95060.00
2024-05-09T09:31:31.226Z,95059.00
2024-05-09T09:32:30.113Z,95060.00
2024-05-09T09:33:30.155Z,95057.00
2024-05-09T09:34:30.089Z,95057.00
2024-05-09T09:35:30.019Z,95057.00
2024-05-09T09:36:30.043Z,95056.00
2024-05-09T09:37:30.036Z,95051.00
2024-05-09T09:38:30.026Z,95048.00
2024-05-09T09:39:30.050Z,95048.00
2024-05-09T09:40:32.927Z,95049.00
2024-05-09T09:41:30.023Z,95046.00
2024-05-09T09:42:30.076Z,95044.00
2024-05-09T09:43:30.033Z,95046.00
2024-05-09T09:44:30.032Z,95041.00
2024-05-09T09:45:30.105Z,95041.00
2024-05-09T09:46:30.233Z,95037.00
2024-05-09T09:47:30.135Z,95037.00
2024-05-09T09:48:30.161Z,95036.00
2024-05-09T09:49:30.056Z,95035.00
2024-05-09T09:50:34.436Z,95034.00
2024-05-09T09:51:31.059Z,95030.00
2024-05-09T09:52:30.085Z,95030.00
2024-05-09T09:53:30.068Z,95029.00
2024-05-09T09:54:30.057Z,95025.00
2024-05-09T09:55:30.067Z,95025.00
2024-05-09T09:56:30.082Z,95025.00
2024-05-09T09:57:30.189Z,95026.00
2024-05-09T09:58:30.280Z,95023.00
2024-05-09T09:59:30.080Z,95021.00
2024-05-09T10:00:33.142Z,95020.00
2024-05-09T10:01:30.135Z,95018.00
2024-05-09T10:02:35.557Z,95016.00
2024-05-09T10:03:30.524Z,95017.00
2024-05-09T10:04:30.374Z,95016.00
2024-05-09T10:05:30.721Z,95014.00
2024-05-09T10:06:30.532Z,95014.00
2024-05-09T10:07:31.433Z,95014.00
2024-05-09T10:08:32.980Z,95011.00
2024-05-09T10:09:32.020Z,95008.00
2024-05-09T10:10:32.877Z,95008.00
2024-05-09T10:11:31.642Z,95006.00
2024-05-09T10:12:31.549Z,95007.00
2024-05-09T10:13:30.480Z,95003.00
2024-05-09T10:14:30.440Z,94998.00
2024-05-09T10:15:30.457Z,95000.00
2024-05-09T10:16:30.478Z,95001.00
2024-05-09T10:17:37.072Z,94997.00
2024-05-09T10:18:32.686Z,94995.00
2024-05-09T10:19:31.517Z,94994.00
2024-05-09T10:20:32.689Z,94991.00
2024-05-09T10:21:30.705Z,94989.00
2024-05-09T10:22:30.668Z,94987.00
2024-05-09T10:23:30.745Z,94987.00
2024-05-09T10:24:30.891Z,94987.00
2024-05-09T10:25:30.745Z,94986.00
2024-05-09T10:26:30.711Z,94987.00
2024-05-09T10:27:30.768Z,94987.00
2024-05-09T10:28:30.776Z,94983.00
2024-05-09T10:29:30.762Z,94982.00
2024-05-09T10:30:35.829Z,94984.00
2024-05-09T10:31:31.767Z,94982.00
2024-05-09T10:32:30.851Z,94984.00
2024-05-09T10:33:30.952Z,94981.00
2024-05-09T10:34:30.889Z,94980.00
2024-05-09T10:35:31.811Z,94979.00
2024-05-09T10:36:30.841Z,94976.00
2024-05-09T10:37:30.829Z,94976.00
2024-05-09T10:38:30.791Z,94975.00
2024-05-09T10:39:30.831Z,94972.00
2024-05-09T10:40:31.863Z,94968.00
2024-05-09T10:41:30.779Z,94967.00
2024-05-09T10:42:30.790Z,94968.00
2024-05-09T10:43:30.808Z,94963.00
2024-05-09T10:44:30.770Z,94963.00
2024-05-09T10:45:30.815Z,94960.00
2024-05-09T10:46:30.937Z,94960.00
2024-05-09T10:47:30.897Z,94956.00
2024-05-09T10:48:30.863Z,94958.00
2024-05-09T10:49:30.856Z,94958.00
2024-05-09T10:50:34.192Z,94957.00
2024-05-09T10:51:30.806Z,94957.00
2024-05-09T10:52:30.784Z,94952.00
2024-05-09T10:53:30.794Z,94952.00
2024-05-09T10:54:30.811Z,94950.00
2024-05-09T10:55:30.870Z,94950.00
2024-05-09T10:56:30.797Z,94949.00
2024-05-09T10:57:30.853Z,94946.00
2024-05-09T10:58:30.803Z,94948.00
2024-05-09T10:59:30.806Z,94951.00
2024-05-09T11:00:35.718Z,94950.00
2024-05-09T11:01:31.959Z,94948.00
2024-05-09T11:02:30.997Z,94946.00
2024-05-09T11:03:31.026Z,94948.00
2024-05-09T11:04:30.883Z,94949.00
2024-05-09T11:05:30.876Z,94947.00
2024-05-09T11:06:30.844Z,94943.00
2024-05-09T11:07:30.882Z,94940.00
2024-05-09T11:08:30.821Z,94940.00
2024-05-09T11:09:30.841Z,94942.00
2024-05-09T11:10:34.069Z,94938.00
2024-05-09T11:11:30.891Z,94940.00
2024-05-09T11:12:30.875Z,94940.00
2024-05-09T11:13:31.019Z,94932.00
2024-05-09T11:14:30.897Z,94937.00
2024-05-09T11:15:30.964Z,94940.00
2024-05-09T11:16:30.914Z,94936.00
2024-05-09T11:17:30.940Z,94938.00
2024-05-09T11:18:34.827Z,94938.00
2024-05-09T11:19:31.978Z,94935.00
2024-05-09T11:20:34.815Z,94933.00
2024-05-09T11:21:30.867Z,94931.00
2024-05-09T11:22:30.847Z,94928.00
2024-05-09T11:23:31.092Z,94933.00
2024-05-09T11:24:30.875Z,94928.00
2024-05-09T11:25:30.863Z,94930.00
2024-05-09T11:26:30.857Z,94924.00
2024-05-09T11:27:30.896Z,94923.00
2024-05-09T11:28:30.865Z,94924.00
2024-05-09T11:29:30.862Z,94918.00
2024-05-09T11:30:32.344Z,94915.00
2024-05-09T11:31:30.973Z,94915.00
2024-05-09T11:32:31.051Z,94914.00
2024-05-09T11:33:31.080Z,94914.00
2024-05-09T11:34:30.915Z,94911.00
2024-05-09T11:35:30.873Z,94912.00
2024-05-09T11:36:30.892Z,94914.00
2024-05-09T11:37:32.716Z,94908.00
2024-05-09T11:38:30.879Z,94911.00
2024-05-09T11:39:30.908Z,94907.00
2024-05-09T11:40:34.264Z,94907.00
2024-05-09T11:41:30.892Z,94911.00
2024-05-09T11:42:30.937Z,94909.00
2024-05-09T11:43:31.047Z,94908.00
2024-05-09T11:44:30.914Z,94902.00
2024-05-09T11:45:30.957Z,94907.00
2024-05-09T11:46:30.932Z,94903.00